createdAt,value
2023-04-27T00:01:12.393Z,18.48
2023-04-27T00:06:17.774Z,15.25
2023-04-27T00:11:22.343Z,19.05
2023-04-27T00:16:26.388Z,19.00
2023-04-27T00:21:32.134Z,13.82
2023-04-27T00:26:36.131Z,17.55
2023-04-27T00:31:40.012Z,18.25
2023-04-27T00:36:45.581Z,15.85
2023-04-27T00:41:49.888Z,20.27
2023-04-27T00:46:54.844Z,13.45
2023-04-27T00:52:01.445Z,16.00
2023-04-27T00:57:05.360Z,17.38
2023-04-27T01:02:10.368Z,21.67
2023-04-27T01:07:17.102Z,20.35
2023-04-27T01:12:21.124Z,15.25
2023-04-27T01:17:26.264Z,19.35
2023-04-27T01:22:31.882Z,16.60
2023-04-27T01:27:37.205Z,18.98
2023-04-27T01:32:41.236Z,14.57
2023-04-27T01:37:45.419Z,18.92
2023-04-27T01:42:50.781Z,16.65
2023-04-27T01:47:55.272Z,19.60
2023-04-27T01:52:59.245Z,17.00
2023-04-27T01:58:04.661Z,16.75
2023-04-27T02:03:09.821Z,22.65
2023-04-27T02:08:13.946Z,17.50
2023-04-27T02:13:19.424Z,20.52
2023-04-27T02:18:24.454Z,17.90
2023-04-27T02:23:28.382Z,12.17
2023-04-27T02:28:34.372Z,17.67
2023-04-27T02:33:38.828Z,18.08
2023-04-27T02:38:42.737Z,20.70
2023-04-27T02:43:48.728Z,14.95
2023-04-27T02:48:52.782Z,19.40
2023-04-27T02:53:56.646Z,17.05
2023-04-27T02:59:02.186Z,17.23
2023-04-27T03:04:07.666Z,17.08
2023-04-27T03:09:12.961Z,18.58
2023-04-27T03:14:18.460Z,16.17
2023-04-27T03:19:22.425Z,19.55
2023-04-27T03:24:27.794Z,22.60
2023-04-27T03:29:33.199Z,16.00
2023-04-27T03:34:37.323Z,15.50
2023-04-27T03:39:41.892Z,22.27
2023-04-27T03:44:48.315Z,28.30
2023-04-27T03:49:52.228Z,18.52
2023-04-27T03:54:56.375Z,17.98
2023-04-27T04:00:01.778Z,17.48
2023-04-27T04:05:06.138Z,20.23
2023-04-27T04:10:12.015Z,17.75
2023-04-27T04:15:17.429Z,16.80
2023-04-27T04:20:21.668Z,14.18
2023-04-27T04:25:26.222Z,20.00
2023-04-27T04:30:32.601Z,17.80
2023-04-27T04:35:42.048Z,18.55
2023-04-27T04:40:50.727Z,15.50
2023-04-27T04:46:00.070Z,18.50
2023-04-27T04:51:08.508Z,20.98
2023-04-27T04:56:17.521Z,17.13
2023-04-27T05:01:25.469Z,20.17
2023-04-27T05:06:32.892Z,15.52
2023-04-27T05:11:40.125Z,22.20
2023-04-27T05:16:48.580Z,19.00
2023-04-27T05:21:52.709Z,15.43
2023-04-27T05:26:56.800Z,18.15
2023-04-27T05:32:02.159Z,19.95
2023-04-27T05:37:06.112Z,19.17
2023-04-27T05:42:09.985Z,18.42
2023-04-27T05:47:15.230Z,20.05
2023-04-27T05:52:19.232Z,15.87
2023-04-27T05:57:23.334Z,22.70
2023-04-27T06:02:28.972Z,18.85
2023-04-27T06:07:33.859Z,21.27
2023-04-27T06:12:38.194Z,18.90
2023-04-27T06:17:44.562Z,19.70
2023-04-27T06:22:48.582Z,16.02
2023-04-27T06:27:52.598Z,20.02
2023-04-27T06:32:57.987Z,27.85
2023-04-27T06:38:02.044Z,13.90
2023-04-27T06:43:06.242Z,15.68
2023-04-27T06:48:12.066Z,17.95
2023-04-27T06:53:17.406Z,18.17
2023-04-27T06:58:22.244Z,19.13
2023-04-27T07:03:27.907Z,16.90
2023-04-27T07:08:31.864Z,17.17
2023-04-27T07:13:35.935Z,13.30
2023-04-27T07:18:43.312Z,12.35
2023-04-27T07:23:47.607Z,15.45
2023-04-27T07:28:52.038Z,17.70
2023-04-27T07:33:58.157Z,11.50
2023-04-27T07:39:02.400Z,15.57
2023-04-27T07:44:06.549Z,20.88
2023-04-27T07:49:13.962Z,22.58
2023-04-27T07:54:18.116Z,18.10
2023-04-27T07:59:22.282Z,25.33
2023-04-27T08:04:27.948Z,16.67
2023-04-27T08:09:32.473Z,22.08
2023-04-27T08:14:37.718Z,18.92
2023-04-27T08:19:43.332Z,25.25
2023-04-27T08:24:47.290Z,17.65
2023-04-27T08:29:51.674Z,18.35
2023-04-27T08:34:59.540Z,19.30
2023-04-27T08:40:06.955Z,11.32
2023-04-27T08:45:11.502Z,9.35
2023-04-27T08:50:17.008Z,11.00
2023-04-27T08:55:21.310Z,9.80
2023-04-27T09:00:28.891Z,9.23
2023-04-27T09:05:34.456Z,8.82
2023-04-27T09:10:46.122Z,10.73
2023-04-27T09:15:52.702Z,9.57
2023-04-27T09:20:58.041Z,8.75
2023-04-27T09:26:03.798Z,17.38
2023-04-27T09:36:15.567Z,7.57
2023-04-27T09:46:26.022Z,7.97
2023-04-27T09:51:31.987Z,6.88
2023-04-27T09:56:54.869Z,10.13
2023-04-27T10:02:09.978Z,8.40
2023-04-27T10:07:23.709Z,6.63
2023-04-27T10:12:29.759Z,8.80
2023-04-27T10:17:35.471Z,11.80
2023-04-27T10:27:49.770Z,6.47
2023-04-27T10:32:55.773Z,8.30
2023-04-27T10:43:14.392Z,8.55
2023-04-27T10:48:18.637Z,10.80
2023-04-27T10:53:24.005Z,5.65
2023-04-27T10:58:37.647Z,8.65
2023-04-27T11:03:49.071Z,7.03
2023-04-27T11:08:54.931Z,7.72
2023-04-27T11:13:59.571Z,12.27
2023-04-27T11:19:06.902Z,8.93
2023-04-27T11:24:15.183Z,8.80
2023-04-27T11:29:19.701Z,7.57
2023-04-27T11:34:26.529Z,8.20
2023-04-27T11:39:35.338Z,9.00
2023-04-27T11:44:40.589Z,9.27
2023-04-27T11:49:48.354Z,7.95
2023-04-27T11:54:56.609Z,8.10
2023-04-27T12:00:11.302Z,5.72
2023-04-27T12:05:19.936Z,7.35
2023-04-27T12:10:26.085Z,8.18
2023-04-27T12:20:33.862Z,6.45
2023-04-27T12:25:41.182Z,6.72
2023-04-27T12:30:45.669Z,12.20
2023-04-27T12:35:49.866Z,6.78
2023-04-27T12:40:55.286Z,9.45
2023-04-27T12:45:59.315Z,4.60
2023-04-27T12:51:03.573Z,9.13
2023-04-27T12:56:09.312Z,11.95
2023-04-27T13:01:15.633Z,8.05
2023-04-27T13:06:20.042Z,12.68
2023-04-27T13:11:25.627Z,7.45
2023-04-27T13:16:29.719Z,8.25
2023-04-27T13:21:34.345Z,7.78
2023-04-27T13:26:39.682Z,10.02
2023-04-27T13:31:43.774Z,9.43
2023-04-27T13:36:49.441Z,7.97
2023-04-27T13:46:59.020Z,6.40
2023-04-27T13:52:03.138Z,10.38
2023-04-27T13:57:08.457Z,10.50
2023-04-27T14:02:12.531Z,10.13
2023-04-27T14:07:16.867Z,9.15
2023-04-27T14:12:22.314Z,11.32
2023-04-27T14:17:26.858Z,7.63
2023-04-27T14:22:31.560Z,9.15
2023-04-27T14:27:37.165Z,11.05
2023-04-27T14:32:41.859Z,6.72
2023-04-27T14:37:45.750Z,9.95
2023-04-27T14:42:51.140Z,10.57
2023-04-27T14:47:55.388Z,8.32
2023-04-27T14:52:59.453Z,13.43
2023-04-27T14:58:05.036Z,13.80
2023-04-27T15:03:09.418Z,10.13
2023-04-27T15:08:13.541Z,9.90
2023-04-27T15:13:18.824Z,9.43
2023-04-27T15:18:22.933Z,11.65
2023-04-27T15:23:28.363Z,8.57
2023-04-27T15:28:34.726Z,9.38
2023-04-27T15:33:38.679Z,9.30
2023-04-27T15:38:42.673Z,9.95
2023-04-27T15:43:48.126Z,9.57
2023-04-27T15:48:52.269Z,12.10
2023-04-27T15:53:56.215Z,13.27
2023-04-27T15:59:01.567Z,11.60
2023-04-27T16:04:06.399Z,14.50
2023-04-27T16:09:11.729Z,24.20
2023-04-27T16:14:17.145Z,15.70
2023-04-27T16:19:21.298Z,6.57
2023-04-27T16:24:26.934Z,10.88
2023-04-27T16:29:32.344Z,12.63
2023-04-27T16:34:37.298Z,19.83
2023-04-27T16:39:41.414Z,13.10
2023-04-27T16:44:47.087Z,16.58
2023-04-27T16:49:51.357Z,15.75
2023-04-27T16:54:55.544Z,19.80
2023-04-27T17:00:02.095Z,10.68
2023-04-27T17:05:07.103Z,16.45
2023-04-27T17:10:11.493Z,15.90
2023-04-27T17:15:18.254Z,13.82
2023-04-27T17:20:22.418Z,14.27
2023-04-27T17:25:26.848Z,32.47
2023-04-27T17:30:32.288Z,20.80
2023-04-27T17:35:36.400Z,24.48
2023-04-27T17:40:40.442Z,17.88
2023-04-27T17:45:45.781Z,21.27
2023-04-27T17:50:49.884Z,18.10
2023-04-27T17:55:54.108Z,22.38
2023-04-27T18:00:59.552Z,15.70
2023-04-27T18:06:12.611Z,23.58
2023-04-27T18:11:16.825Z,17.98
2023-04-27T18:16:22.262Z,21.35
2023-04-27T18:21:27.926Z,20.55
2023-04-27T18:26:32.120Z,10.80
2023-04-27T18:31:38.127Z,8.63
2023-04-27T18:36:42.320Z,24.75
2023-04-27T18:41:46.298Z,45.45
2023-04-27T18:46:51.923Z,76.80
2023-04-27T18:51:55.870Z,168.68
2023-04-27T18:57:00.230Z,195.20
2023-04-27T19:02:05.600Z,54.42
2023-04-27T19:07:09.688Z,51.38
2023-04-27T19:12:13.733Z,54.20
2023-04-27T19:17:19.409Z,38.50
2023-04-27T19:22:23.475Z,45.30
2023-04-27T19:27:27.568Z,52.20
2023-04-27T19:32:34.383Z,38.45
2023-04-27T19:37:38.586Z,43.85
2023-04-27T19:42:42.599Z,39.40
2023-04-27T19:47:48.757Z,38.95
2023-04-27T19:52:52.770Z,29.98
2023-04-27T19:57:56.814Z,36.00
2023-04-27T20:03:02.370Z,37.78
2023-04-27T20:08:06.547Z,34.17
2023-04-27T20:13:10.935Z,49.08
2023-04-27T20:18:16.350Z,52.08
2023-04-27T20:23:20.237Z,59.63
2023-04-27T20:28:24.481Z,46.80
2023-04-27T20:33:29.876Z,39.50
2023-04-27T20:38:33.814Z,30.85
2023-04-27T20:43:39.876Z,40.50
2023-04-27T20:48:46.311Z,40.33
2023-04-27T20:53:50.290Z,39.95
2023-04-27T20:58:54.388Z,37.60
2023-04-27T21:04:00.264Z,46.40
2023-04-27T21:09:04.232Z,39.17
2023-04-27T21:14:08.357Z,41.65
2023-04-27T21:19:16.262Z,34.05
2023-04-27T21:24:20.424Z,30.67
2023-04-27T21:29:24.420Z,26.52
2023-04-27T21:34:29.722Z,29.85
2023-04-27T21:39:33.638Z,41.95
2023-04-27T21:44:38.264Z,37.42
2023-04-27T21:49:43.589Z,31.58
2023-04-27T21:54:47.453Z,46.97
2023-04-27T21:59:51.383Z,48.45
2023-04-27T22:04:56.822Z,38.88
2023-04-27T22:10:00.816Z,32.22
2023-04-27T22:15:05.234Z,27.90
2023-04-27T22:20:12.720Z,31.77
2023-04-27T22:25:17.233Z,30.95
2023-04-27T22:30:21.126Z,189.73
2023-04-27T22:35:27.805Z,203.27
2023-04-27T22:40:32.072Z,101.85
2023-04-27T22:45:38.147Z,85.68
2023-04-27T22:50:44.251Z,87.18
2023-04-27T22:55:48.148Z,62.60
2023-04-27T23:00:52.084Z,50.22
2023-04-27T23:05:57.779Z,56.63
2023-04-27T23:11:02.828Z,83.97
2023-04-27T23:16:07.930Z,135.30
2023-04-27T23:21:13.600Z,70.30
2023-04-27T23:26:17.984Z,49.85
2023-04-27T23:31:23.651Z,53.00
2023-04-27T23:36:29.501Z,49.60
2023-04-27T23:41:33.350Z,47.92
2023-04-27T23:46:37.585Z,46.92
2023-04-27T23:51:42.843Z,46.72
2023-04-27T23:56:47.296Z,43.07
